• Join FlightAware (Why Join?)
  • Login
  • US Flag 
09:36PM EDT


 

Airport Tracker/Info


-or-


 

Live Flight TrackerFlight Track Log ✈ XOJ760 ✈ 31-Jul-2013 ✈ KACK - KTEB

Flight Track Log - Related Links

Times and Time Zones

All times are in EDT time to prevent confusion due to time zone crossing. See the XOJ760 flight status page for this flight to view local times or setup timezone preferences in your user account.

Time Position Orientation Groundspeed Altitude Reporting Facility
EDT Latitude Longitude Course Direction KTS MPH feet Rate Location/Type
11:36PM 41.2197 -70.1108 243° Southwest 269 310 3,200  Level Boston Center
11:37PM 41.1939 -70.1781 243° Southwest 221 254 7,100 3,600 Climbing Boston Center
11:38PM 41.2269 -70.2597 298° West 211 243 10,500 3,120 Climbing Boston Center
11:39PM 41.2639 -70.3525 298° West 239 275 13,500 2,700 Climbing Boston Center
11:40PM 41.3056 -70.4617 297° West 290 334 15,900 1,260 Climbing Boston Center
11:41PM 41.3511 -70.5708 299° West 352 405 16,000  Climbing Boston Center
11:42PM 41.4078 -70.7186 297° West 408 470 16,000  Level Boston Center
11:43PM 41.4597 -70.8475 298° West 422 486 16,000  Level Boston Center
11:44PM 41.5181 -70.9956 298° West 417 480 16,000  Level Boston Center
11:45PM 41.5631 -71.1111 298° West 399 459 16,000  Level Boston Center
11:46PM 41.6189 -71.2572 297° West 399 459 16,000  Level Boston Center
11:47PM 41.6639 -71.3731 298° West 399 459 16,000  Level Boston Center
11:48PM 41.7194 -71.5167 297° West 400 460 16,000  Level Boston Center
11:49PM 41.7661 -71.6414 297° West 400 460 16,000  Level Boston Center
11:50PM 41.8192 -71.7856 296° West 400 460 16,000  Level Boston Center
11:51PM 41.8614 -71.8994 296° West 400 460 16,000  Level Boston Center
11:52PM 41.9078 -72.0300 296° West 400 460 16,000  Level Boston Center
11:53PM 41.9625 -72.1778 297° West 400 460 16,000  Level Boston Center
11:54PM 41.9647 -72.3033 271° West 374 430 16,000  Level Boston Center
11:55PM 41.9564 -72.4597 266° West 382 440 16,000  Level Boston Center
11:56PM 41.9481 -72.5881 265° West 387 445 16,000  Level Boston Center
11:57PM 41.9394 -72.7386 266° West 392 451 16,000  Level Boston Center
11:58PM 41.9328 -72.8811 266° West 392 451 16,000  Level Boston Center
11:59PM 41.9028 -73.0314 255° West 384 442 16,000  Level Boston Center
12:00AM 41.8644 -73.1650 249° West 384 442 16,000  Level Boston Center
12:01AM 41.8219 -73.3008 247° West 397 457 16,000  Level Boston Center
12:02AM 41.7792 -73.4283 246° West 410 472 16,000  Level Boston Center
12:03AM 41.7297 -73.5833 247° West 417 480 16,000 -300 Level Boston Center
12:04AM 41.6908 -73.7133 248° West 417 480 15,400 -1,620 Descending Boston Center
12:05AM 41.6475 -73.8542 248° West 402 463 12,900 -2,040 Descending Boston Center
12:06AM 41.6128 -73.9561 246° West 358 412 11,400 -1,800 Descending Boston Center
12:07AM 41.5778 -74.0747 249° West 291 335 9,200 -1,980 Descending Boston Center
12:08AM 41.5333 -74.1833 241° Southwest 279 321 7,100 -1,080 Descending New York TRACON
12:09AM 41.5000 -74.2500 236° Southwest 275 316 7,000 -60 Descending New York TRACON
12:10AM 41.4167 -74.2500 180° South 273 314 7,000  Level New York TRACON
12:11AM 41.3500 -74.2500 180° South 274 315 7,000 -360 Level New York TRACON
12:12AM 41.2667 -74.2333 171° South 270 311 6,300 -960 Descending New York TRACON
12:14AM 41.1833 -74.2333 180° South 259 298 5,000 -1,200 Descending New York TRACON
12:15AM 41.1333 -74.1833 143° Southeast 262 302 3,800 -1,020 Descending New York TRACON
12:16AM 41.0833 -74.1167 135° Southeast 259 298 3,000 -720 Descending New York TRACON
12:17AM 41.0167 -74.0500 143° Southeast 251 289 2,400 -540 Descending New York TRACON
12:18AM 40.9667 -74.0500 180° South 152 175 2,000 -420 Descending New York TRACON
12:18AM 40.9500 -74.0500 180° South 118 136 1,700 -480 Descending New York TRACON
12:19AM 40.9167 -74.0500 180° South 117 135 1,100 -600 Descending New York TRACON
12:21AM 40.8833 -74.0500 180° South 119 137 500 -540 Descending New York TRACON